createdAt,value
2019-05-10T00:00:04.475Z,11.12
2019-05-10T00:02:50.968Z,11.00
2019-05-10T00:05:37.118Z,11.05
2019-05-10T00:08:23.557Z,11.06
2019-05-10T00:11:01.091Z,11.03
2019-05-10T00:13:30.266Z,11.04
2019-05-10T00:15:58.924Z,10.99
2019-05-10T00:18:26.516Z,10.98
2019-05-10T00:20:54.059Z,11.01
2019-05-10T00:23:21.444Z,11.01
2019-05-10T00:25:51.302Z,10.89
2019-05-10T00:28:18.066Z,10.90
2019-05-10T00:30:45.629Z,10.91
2019-05-10T00:33:12.783Z,10.81
2019-05-10T00:35:40.169Z,10.77
2019-05-10T00:38:07.435Z,10.77
2019-05-10T00:40:34.694Z,10.68
2019-05-10T00:43:01.954Z,10.68
2019-05-10T00:45:29.199Z,10.66
2019-05-10T00:47:56.462Z,10.57
2019-05-10T00:50:23.836Z,10.58
2019-05-10T00:52:52.255Z,10.56
2019-05-10T00:55:19.671Z,10.49
2019-05-10T00:57:46.884Z,10.47
2019-05-10T01:00:14.878Z,10.46
2019-05-10T01:02:42.127Z,10.50
2019-05-10T01:05:09.638Z,10.48
2019-05-10T01:07:36.987Z,10.47
2019-05-10T01:10:04.799Z,10.36
2019-05-10T01:12:31.960Z,10.38
2019-05-10T01:14:59.109Z,10.44
2019-05-10T01:17:26.647Z,10.43
2019-05-10T01:19:54.983Z,10.49
2019-05-10T01:22:22.402Z,10.46
2019-05-10T01:24:51.208Z,10.53
2019-05-10T01:27:18.672Z,10.46
2019-05-10T01:29:46.003Z,10.53
2019-05-10T01:32:13.772Z,10.48
2019-05-10T01:34:52.424Z,10.54
2019-05-10T01:37:19.786Z,10.54
2019-05-10T01:39:47.141Z,10.53
2019-05-10T01:42:14.378Z,10.50
2019-05-10T01:44:41.552Z,10.53
2019-05-10T01:47:08.800Z,10.56
2019-05-10T01:49:36.145Z,10.53
2019-05-10T01:52:04.350Z,10.56
2019-05-10T01:54:31.725Z,10.49
2019-05-10T01:56:58.975Z,10.52
2019-05-10T01:59:26.228Z,10.49
2019-05-10T02:01:53.473Z,10.50
2019-05-10T02:04:20.976Z,10.48
2019-05-10T02:06:48.318Z,10.49
2019-05-10T02:09:17.573Z,10.45
2019-05-10T02:11:47.702Z,10.47
2019-05-10T02:14:15.244Z,10.47
2019-05-10T02:16:42.670Z,10.36
2019-05-10T02:19:09.919Z,10.47
2019-05-10T02:21:37.274Z,10.37
2019-05-10T02:24:04.654Z,10.37
2019-05-10T02:26:31.928Z,10.30
2019-05-10T02:28:59.161Z,10.33
2019-05-10T02:31:26.313Z,10.27
2019-05-10T02:33:53.465Z,10.26
2019-05-10T02:36:20.746Z,10.29
2019-05-10T02:38:48.092Z,10.26
2019-05-10T02:41:15.729Z,10.25
2019-05-10T02:43:43.432Z,10.24
2019-05-10T02:46:10.907Z,10.22
2019-05-10T02:48:38.372Z,10.17
2019-05-10T02:51:05.926Z,10.07
2019-05-10T02:53:33.596Z,10.02
2019-05-10T02:56:02.627Z,10.00
2019-05-10T02:58:31.747Z,9.83
2019-05-10T03:01:01.835Z,9.81
2019-05-10T03:03:31.994Z,9.78
2019-05-10T03:06:01.933Z,9.88
2019-05-10T03:08:46.675Z,9.88
2019-05-10T03:11:14.413Z,9.85
2019-05-10T03:13:47.836Z,9.76
2019-05-10T03:16:18.893Z,9.72
2019-05-10T03:18:48.863Z,9.70
2019-05-10T03:21:17.830Z,9.63
2019-05-10T03:23:46.459Z,9.56
2019-05-10T03:26:13.918Z,9.55
2019-05-10T03:28:41.303Z,9.43
2019-05-10T03:31:08.857Z,9.34
2019-05-10T03:33:36.937Z,9.37
2019-05-10T03:36:09.465Z,9.39
2019-05-10T03:38:37.670Z,9.43
2019-05-10T03:41:05.369Z,9.53
2019-05-10T03:43:34.900Z,9.46
2019-05-10T03:46:02.907Z,9.45
2019-05-10T03:48:30.520Z,9.47
2019-05-10T03:50:57.868Z,9.41
2019-05-10T03:53:25.497Z,9.48
2019-05-10T03:55:52.839Z,9.41
2019-05-10T03:58:20.315Z,9.32
2019-05-10T04:00:47.673Z,9.27
2019-05-10T04:03:18.014Z,9.29
2019-05-10T04:05:45.292Z,9.23
2019-05-10T04:08:12.601Z,9.20
2019-05-10T04:10:42.502Z,9.19
2019-05-10T04:13:09.634Z,9.17
2019-05-10T04:15:36.915Z,9.13
2019-05-10T04:18:04.406Z,9.12
2019-05-10T04:20:31.816Z,9.09
2019-05-10T04:22:59.199Z,9.03
2019-05-10T04:25:26.395Z,9.10
2019-05-10T04:27:53.642Z,9.02
2019-05-10T04:30:23.105Z,9.05
2019-05-10T04:32:50.818Z,9.07
2019-05-10T04:35:21.316Z,9.05
2019-05-10T04:37:49.853Z,9.06
2019-05-10T04:40:17.333Z,9.09
2019-05-10T04:42:44.472Z,9.05
2019-05-10T04:45:13.122Z,9.13
2019-05-10T04:47:40.351Z,9.14
2019-05-10T04:50:07.947Z,9.16
2019-05-10T04:52:35.472Z,9.20
2019-05-10T04:55:03.593Z,9.24
2019-05-10T04:57:47.953Z,9.27
2019-05-10T05:00:00.132Z,9.34
2019-05-10T05:02:27.597Z,9.35
2019-05-10T05:04:54.870Z,9.45
2019-05-10T05:07:22.033Z,9.54
2019-05-10T05:09:49.758Z,9.63
2019-05-10T05:12:19.765Z,9.68
2019-05-10T05:14:47.099Z,9.81
2019-05-10T05:17:15.022Z,9.95
2019-05-10T05:19:42.532Z,10.15
2019-05-10T05:22:09.981Z,10.37
2019-05-10T05:24:40.466Z,10.54
2019-05-10T05:27:07.973Z,10.68
2019-05-10T05:29:35.275Z,10.77
2019-05-10T05:32:03.638Z,10.78
2019-05-10T05:34:31.060Z,10.77
2019-05-10T05:36:58.741Z,10.69
2019-05-10T05:39:25.839Z,10.74
2019-05-10T05:41:56.677Z,10.90
2019-05-10T05:44:26.143Z,11.09
2019-05-10T05:46:53.888Z,11.55
2019-05-10T05:49:21.040Z,11.90
2019-05-10T05:51:48.304Z,12.23
2019-05-10T05:54:20.831Z,12.76
2019-05-10T05:56:50.518Z,12.84
2019-05-10T05:59:17.490Z,13.09
2019-05-10T06:01:43.724Z,13.19
2019-05-10T06:04:12.824Z,13.02
2019-05-10T06:06:40.105Z,12.95
2019-05-10T06:09:07.708Z,12.75
2019-05-10T06:11:35.675Z,12.64
2019-05-10T06:14:10.917Z,12.52
2019-05-10T06:16:35.092Z,12.47
2019-05-10T06:19:02.590Z,12.46
2019-05-10T06:21:29.954Z,12.44
2019-05-10T06:23:59.426Z,12.39
2019-05-10T06:26:28.786Z,12.34
2019-05-10T06:28:59.418Z,12.25
2019-05-10T06:31:27.439Z,12.26
2019-05-10T06:33:54.765Z,12.37
2019-05-10T06:36:21.921Z,12.46
2019-05-10T06:38:49.188Z,12.52
2019-05-10T06:41:17.436Z,12.49
2019-05-10T06:43:51.254Z,12.51
2019-05-10T06:46:16.857Z,12.66
2019-05-10T06:48:46.524Z,12.62
2019-05-10T06:51:13.768Z,12.57
2019-05-10T06:53:48.846Z,12.68
2019-05-10T06:56:12.035Z,12.68
2019-05-10T06:58:39.673Z,12.54
2019-05-10T07:01:07.077Z,12.49
2019-05-10T07:03:34.332Z,12.69
2019-05-10T07:06:01.610Z,12.56
2019-05-10T07:08:44.375Z,12.63
2019-05-10T07:11:10.104Z,12.74
2019-05-10T07:13:40.512Z,12.90
2019-05-10T07:16:06.469Z,12.87
2019-05-10T07:18:33.727Z,12.89
2019-05-10T07:21:06.506Z,12.85
2019-05-10T07:23:32.237Z,13.03
2019-05-10T07:25:59.724Z,12.99
2019-05-10T07:28:29.673Z,12.98
2019-05-10T07:30:56.961Z,13.05
2019-05-10T07:33:24.436Z,13.06
2019-05-10T07:35:52.938Z,13.26
2019-05-10T07:38:23.549Z,13.30
2019-05-10T07:40:50.354Z,13.24
2019-05-10T07:43:24.847Z,13.37
2019-05-10T07:45:47.115Z,13.20
2019-05-10T07:48:14.473Z,13.27
2019-05-10T07:50:42.446Z,13.26
2019-05-10T07:53:16.180Z,13.34
2019-05-10T07:55:40.230Z,13.30
2019-05-10T07:58:11.130Z,13.39
2019-05-10T08:00:44.474Z,13.46
2019-05-10T08:03:15.986Z,13.60
2019-05-10T08:05:39.135Z,13.58
2019-05-10T08:08:06.571Z,13.62
2019-05-10T08:10:33.926Z,13.72
2019-05-10T08:13:03.592Z,13.65
2019-05-10T08:15:34.615Z,13.58
2019-05-10T08:17:59.503Z,13.61
2019-05-10T08:20:41.300Z,13.75
2019-05-10T08:22:56.058Z,13.77
2019-05-10T08:25:29.324Z,13.99
2019-05-10T08:27:55.259Z,14.12
2019-05-10T08:30:51.705Z,14.34
2019-05-10T08:33:14.379Z,14.56
2019-05-10T08:35:46.452Z,14.73
2019-05-10T08:38:14.320Z,14.85
2019-05-10T08:40:42.748Z,15.13
2019-05-10T08:43:15.485Z,15.20
2019-05-10T08:45:45.179Z,15.10
2019-05-10T08:48:12.691Z,15.22
2019-05-10T08:50:50.704Z,15.36
2019-05-10T08:53:10.764Z,15.42
2019-05-10T08:55:43.263Z,15.64
2019-05-10T08:58:12.416Z,15.44
2019-05-10T09:00:50.646Z,15.36
2019-05-10T09:03:11.972Z,15.29
2019-05-10T09:05:40.038Z,15.36
2019-05-10T09:08:13.591Z,15.20
2019-05-10T09:10:37.283Z,15.39
2019-05-10T09:13:04.867Z,15.37
2019-05-10T09:15:34.578Z,15.41
2019-05-10T09:18:05.904Z,15.42
2019-05-10T09:20:33.994Z,15.17
2019-05-10T09:23:02.430Z,15.44
2019-05-10T09:25:33.812Z,15.49
2019-05-10T09:28:10.680Z,15.55
2019-05-10T09:30:35.653Z,15.53
2019-05-10T09:33:08.523Z,15.77
2019-05-10T09:35:51.205Z,15.87
2019-05-10T09:38:15.534Z,15.91
2019-05-10T09:40:51.034Z,16.00
2019-05-10T09:43:15.151Z,16.10
2019-05-10T09:45:42.911Z,16.46
2019-05-10T09:48:12.083Z,16.45
2019-05-10T09:50:44.327Z,16.55
2019-05-10T09:53:10.432Z,16.34
2019-05-10T09:55:38.110Z,16.48
2019-05-10T09:58:05.378Z,16.56
2019-05-10T10:00:37.692Z,16.45
2019-05-10T10:03:08.086Z,16.54
2019-05-10T10:05:34.844Z,16.64
2019-05-10T10:08:03.564Z,16.69
2019-05-10T10:10:32.552Z,16.46
2019-05-10T10:13:08.470Z,16.74
2019-05-10T10:15:34.108Z,17.19
2019-05-10T10:18:00.586Z,17.22
2019-05-10T10:20:30.075Z,17.32
2019-05-10T10:22:57.447Z,17.96
2019-05-10T10:25:27.747Z,18.40
2019-05-10T10:28:00.794Z,19.51
2019-05-10T10:30:31.284Z,20.09
2019-05-10T10:32:58.117Z,19.97
2019-05-10T10:35:29.907Z,20.13
2019-05-10T10:38:02.209Z,20.41
2019-05-10T10:40:27.887Z,19.96
2019-05-10T10:42:57.778Z,20.16
2019-05-10T10:45:27.585Z,20.87
2019-05-10T10:47:57.122Z,21.26
2019-05-10T10:50:27.364Z,21.66
2019-05-10T10:52:57.347Z,22.56
2019-05-10T10:55:30.555Z,22.72
2019-05-10T10:57:53.923Z,23.97
2019-05-10T11:00:32.799Z,23.39
2019-05-10T11:03:01.793Z,24.07
2019-05-10T11:05:29.189Z,23.92
2019-05-10T11:07:56.468Z,23.07
2019-05-10T11:10:31.029Z,23.06
2019-05-10T11:13:02.851Z,23.09
2019-05-10T11:15:35.612Z,22.92
2019-05-10T11:18:00.411Z,23.58
2019-05-10T11:20:31.904Z,23.94
2019-05-10T11:22:59.465Z,24.20
2019-05-10T11:25:26.994Z,23.68
2019-05-10T11:27:58.543Z,23.69
2019-05-10T11:30:23.671Z,23.84
2019-05-10T11:32:51.045Z,24.62
2019-05-10T11:35:28.473Z,24.80
2019-05-10T11:37:53.151Z,24.94
2019-05-10T11:40:30.553Z,25.26
2019-05-10T11:42:51.101Z,25.11
2019-05-10T11:45:20.896Z,25.78
2019-05-10T11:47:52.685Z,25.98
2019-05-10T11:50:28.820Z,25.91
2019-05-10T11:52:51.522Z,26.29
2019-05-10T11:58:02.036Z,26.15
2019-05-10T11:59:04.832Z,25.74
2019-05-10T12:00:29.142Z,26.39
2019-05-10T12:03:06.871Z,26.87
2019-05-10T12:05:26.319Z,27.39
2019-05-10T12:07:54.162Z,27.17
2019-05-10T12:10:25.756Z,27.09
2019-05-10T12:13:06.594Z,27.38
2019-05-10T12:15:25.423Z,27.10
2019-05-10T12:17:58.524Z,27.13
2019-05-10T12:20:30.250Z,27.57
2019-05-10T12:22:51.823Z,27.58
2019-05-10T12:26:21.452Z,27.57
2019-05-10T12:27:49.909Z,27.76
2019-05-10T12:30:18.670Z,27.65
2019-05-10T12:32:55.611Z,27.01
2019-05-10T12:35:15.406Z,27.18
2019-05-10T12:37:46.457Z,27.09
2019-05-10T12:40:15.210Z,26.69
2019-05-10T12:42:42.718Z,26.39
2019-05-10T12:45:10.356Z,26.82
2019-05-10T12:47:37.805Z,27.26
2019-05-10T12:50:06.373Z,27.31
2019-05-10T12:52:33.830Z,27.03
2019-05-10T12:55:01.495Z,27.33
2019-05-10T12:57:28.968Z,27.45
2019-05-10T12:59:57.267Z,26.83
2019-05-10T13:02:24.732Z,27.01
2019-05-10T13:04:52.379Z,26.88
2019-05-10T13:07:36.687Z,26.86
2019-05-10T13:10:06.502Z,26.75
2019-05-10T13:12:37.058Z,26.23
2019-05-10T13:15:04.570Z,26.50
2019-05-10T13:17:32.001Z,26.42
2019-05-10T13:20:01.192Z,26.24
2019-05-10T13:22:36.685Z,26.06
2019-05-10T13:24:58.685Z,25.71
2019-05-10T13:27:26.057Z,25.33
2019-05-10T13:29:53.928Z,24.93
2019-05-10T13:32:22.382Z,25.03
2019-05-10T13:34:49.905Z,24.33
2019-05-10T13:37:23.193Z,24.28
2019-05-10T13:39:46.270Z,24.08
2019-05-10T13:42:13.475Z,23.89
2019-05-10T13:44:42.912Z,23.87
2019-05-10T13:47:10.275Z,23.47
2019-05-10T13:49:43.896Z,23.19
2019-05-10T13:52:11.507Z,22.92
2019-05-10T13:54:38.850Z,22.51
2019-05-10T13:57:06.247Z,22.36
2019-05-10T13:59:37.174Z,22.38
2019-05-10T14:02:04.664Z,22.37
2019-05-10T14:04:33.923Z,22.48
2019-05-10T14:07:01.275Z,22.34
2019-05-10T14:09:28.466Z,22.35
2019-05-10T14:11:55.863Z,22.24
2019-05-10T14:14:26.584Z,22.04
2019-05-10T14:16:52.658Z,21.99
2019-05-10T14:19:22.840Z,22.00
2019-05-10T14:21:50.476Z,21.98
2019-05-10T14:24:17.714Z,21.95
2019-05-10T14:26:45.035Z,21.81
2019-05-10T14:29:12.278Z,21.59
2019-05-10T14:31:39.680Z,21.44
2019-05-10T14:34:15.525Z,21.43
2019-05-10T14:36:41.029Z,21.28
2019-05-10T14:39:06.475Z,21.14
2019-05-10T14:41:39.650Z,21.09
2019-05-10T14:44:05.784Z,21.03
2019-05-10T14:46:33.362Z,21.13
2019-05-10T14:49:09.605Z,21.07
2019-05-10T14:51:49.393Z,21.21
2019-05-10T14:54:06.512Z,21.23
2019-05-10T14:56:31.490Z,21.10
2019-05-10T14:59:00.926Z,20.80
2019-05-10T15:01:28.363Z,20.78
2019-05-10T15:03:55.694Z,20.85
2019-05-10T15:06:30.685Z,20.85
2019-05-10T15:08:58.212Z,20.90
2019-05-10T15:11:26.478Z,20.69
2019-05-10T15:13:54.724Z,20.88
2019-05-10T15:16:27.228Z,20.83
2019-05-10T15:18:53.982Z,20.89
2019-05-10T15:21:21.536Z,20.58
2019-05-10T15:23:49.963Z,20.44
2019-05-10T15:26:17.259Z,20.51
2019-05-10T15:28:44.641Z,20.60
2019-05-10T15:31:12.211Z,20.45
2019-05-10T15:33:39.655Z,20.39
2019-05-10T15:36:12.490Z,20.56
2019-05-10T15:38:49.876Z,20.69
2019-05-10T15:41:09.162Z,20.88
2019-05-10T15:43:36.692Z,20.75
2019-05-10T15:46:07.334Z,20.79
2019-05-10T15:48:36.657Z,20.64
2019-05-10T15:51:04.455Z,20.69
2019-05-10T15:53:32.066Z,20.85
2019-05-10T15:56:03.984Z,20.75
2019-05-10T15:58:30.564Z,20.84
2019-05-10T16:00:58.230Z,20.90
2019-05-10T16:03:27.307Z,21.01
2019-05-10T16:06:00.829Z,20.95
2019-05-10T16:08:30.386Z,20.71
2019-05-10T16:10:55.640Z,20.78
2019-05-10T16:13:31.817Z,20.60
2019-05-10T16:15:59.578Z,20.73
2019-05-10T16:18:33.295Z,20.51
2019-05-10T16:20:59.943Z,20.49
2019-05-10T16:23:27.196Z,20.37
2019-05-10T16:25:54.480Z,20.47
2019-05-10T16:28:22.989Z,20.47
2019-05-10T16:30:50.661Z,20.41
2019-05-10T16:33:18.233Z,20.53
2019-05-10T16:35:49.683Z,20.51
2019-05-10T16:38:15.092Z,20.63
2019-05-10T16:40:44.631Z,20.62
2019-05-10T16:43:13.957Z,20.53
2019-05-10T16:45:40.846Z,20.45
2019-05-10T16:48:08.111Z,20.57
2019-05-10T16:50:37.153Z,20.58
2019-05-10T16:53:06.248Z,20.41
2019-05-10T16:55:35.589Z,20.35
2019-05-10T16:58:03.756Z,20.49
2019-05-10T17:00:31.192Z,20.44
2019-05-10T17:02:58.425Z,20.61
2019-05-10T17:05:25.728Z,20.53
2019-05-10T17:07:53.671Z,20.43
2019-05-10T17:10:26.975Z,20.16
2019-05-10T17:12:51.512Z,20.15
2019-05-10T17:15:19.091Z,20.01
2019-05-10T17:17:52.305Z,19.96
2019-05-10T17:20:27.869Z,19.72
2019-05-10T17:22:55.165Z,19.69
2019-05-10T17:25:22.825Z,19.51
2019-05-10T17:27:56.785Z,19.57
2019-05-10T17:30:21.790Z,19.59
2019-05-10T17:32:51.689Z,19.40
2019-05-10T17:35:18.956Z,19.31
2019-05-10T17:37:46.759Z,19.25
2019-05-10T17:40:16.447Z,19.41
2019-05-10T17:42:47.543Z,19.22
2019-05-10T17:45:15.224Z,19.30
2019-05-10T17:47:42.471Z,19.24
2019-05-10T17:50:10.758Z,19.18
2019-05-10T17:52:38.255Z,19.09
2019-05-10T17:55:16.528Z,19.06
2019-05-10T17:57:39.616Z,18.88
2019-05-10T18:00:09.510Z,18.77
2019-05-10T18:02:47.850Z,18.68
2019-05-10T18:05:15.697Z,18.62
2019-05-10T18:07:42.880Z,18.69
2019-05-10T18:10:11.136Z,18.69
2019-05-10T18:12:39.577Z,18.58
2019-05-10T18:15:10.478Z,18.55
2019-05-10T18:17:37.867Z,18.56
2019-05-10T18:20:09.767Z,18.48
2019-05-10T18:22:47.274Z,18.47
2019-05-10T18:25:30.378Z,18.47
2019-05-10T18:28:05.118Z,18.41
2019-05-10T18:30:33.700Z,18.21
2019-05-10T18:33:06.567Z,18.11
2019-05-10T18:35:34.334Z,18.02
2019-05-10T18:38:07.005Z,17.96
2019-05-10T18:40:34.358Z,17.87
2019-05-10T18:43:03.838Z,17.87
2019-05-10T18:45:31.140Z,17.72
2019-05-10T18:47:58.417Z,17.64
2019-05-10T18:50:25.860Z,17.56
2019-05-10T18:52:53.561Z,17.47
2019-05-10T18:55:20.869Z,17.40
2019-05-10T18:57:50.502Z,17.34
2019-05-10T19:00:23.076Z,17.29
2019-05-10T19:02:55.338Z,17.36
2019-05-10T19:05:24.933Z,17.15
2019-05-10T19:08:02.584Z,17.16
2019-05-10T19:10:19.450Z,17.04
2019-05-10T19:12:59.946Z,16.99
2019-05-10T19:15:19.332Z,16.90
2019-05-10T19:17:47.310Z,16.83
2019-05-10T19:20:16.357Z,16.78
2019-05-10T19:22:44.412Z,16.80
2019-05-10T19:25:14.502Z,16.76
2019-05-10T19:27:44.651Z,16.64
2019-05-10T19:30:20.206Z,16.63
2019-05-10T19:32:43.836Z,16.57
2019-05-10T19:35:12.206Z,16.46
2019-05-10T19:37:39.563Z,16.42
2019-05-10T19:40:07.978Z,16.38
2019-05-10T19:42:37.332Z,16.35
2019-05-10T19:45:12.821Z,16.25
2019-05-10T19:47:44.659Z,16.25
2019-05-10T19:50:14.689Z,16.20
2019-05-10T19:52:42.577Z,16.07
2019-05-10T19:55:13.168Z,16.08
2019-05-10T19:57:39.541Z,15.95
2019-05-10T20:00:08.506Z,15.94
2019-05-10T20:02:35.992Z,15.91
2019-05-10T20:05:03.750Z,15.87
2019-05-10T20:07:44.386Z,15.93
2019-05-10T20:10:00.161Z,15.79
2019-05-10T20:12:27.842Z,15.83
2019-05-10T20:14:55.339Z,15.75
2019-05-10T20:17:22.976Z,15.80
2019-05-10T20:19:53.356Z,15.78
2019-05-10T20:22:20.559Z,15.71
2019-05-10T20:24:48.138Z,15.69
2019-05-10T20:27:15.403Z,15.58
2019-05-10T20:29:42.742Z,15.59
2019-05-10T20:32:13.088Z,15.47
2019-05-10T20:34:40.490Z,15.55
2019-05-10T20:37:08.080Z,15.46
2019-05-10T20:39:35.811Z,15.45
2019-05-10T20:42:03.266Z,15.43
2019-05-10T20:44:30.814Z,15.32
2019-05-10T20:46:58.331Z,15.37
2019-05-10T20:49:25.614Z,15.43
2019-05-10T20:51:52.963Z,15.42
2019-05-10T20:54:20.672Z,15.35
2019-05-10T20:56:47.819Z,15.35
2019-05-10T20:59:15.145Z,15.25
2019-05-10T21:01:42.407Z,15.22
2019-05-10T21:04:09.764Z,15.05
2019-05-10T21:06:36.917Z,15.11
2019-05-10T21:09:05.526Z,15.09
2019-05-10T21:11:32.940Z,15.03
2019-05-10T21:14:00.307Z,15.01
2019-05-10T21:16:27.587Z,14.97
2019-05-10T21:18:54.774Z,14.96
2019-05-10T21:21:22.053Z,14.81
2019-05-10T21:23:49.213Z,14.83
2019-05-10T21:26:21.900Z,14.71
2019-05-10T21:28:49.037Z,14.67
2019-05-10T21:31:16.221Z,14.61
2019-05-10T21:33:43.605Z,14.53
2019-05-10T21:36:10.972Z,14.55
2019-05-10T21:38:41.532Z,14.52
2019-05-10T21:41:07.277Z,14.29
2019-05-10T21:43:34.445Z,14.18
2019-05-10T21:46:01.829Z,14.25
2019-05-10T21:48:29.689Z,14.27
2019-05-10T21:50:56.955Z,14.30
2019-05-10T21:53:24.274Z,14.38
2019-05-10T21:55:51.438Z,14.43
2019-05-10T21:58:18.627Z,14.26
2019-05-10T22:00:50.232Z,14.38
2019-05-10T22:03:18.206Z,14.40
2019-05-10T22:05:45.708Z,14.47
2019-05-10T22:08:13.214Z,14.32
2019-05-10T22:10:40.765Z,14.38
2019-05-10T22:13:08.715Z,14.32
2019-05-10T22:15:36.097Z,14.33
2019-05-10T22:18:03.669Z,14.21
2019-05-10T22:20:31.636Z,14.14
2019-05-10T22:22:58.881Z,14.19
2019-05-10T22:25:26.221Z,14.10
2019-05-10T22:27:53.462Z,14.07
2019-05-10T22:30:21.467Z,14.14
2019-05-10T22:32:48.886Z,14.15
2019-05-10T22:35:16.371Z,14.06
2019-05-10T22:37:43.680Z,13.93
2019-05-10T22:40:11.356Z,13.88
2019-05-10T22:42:38.800Z,13.80
2019-05-10T22:45:06.667Z,13.89
2019-05-10T22:47:34.632Z,13.84
2019-05-10T22:50:02.399Z,13.90
2019-05-10T22:52:29.655Z,13.88
2019-05-10T22:55:00.330Z,13.85
2019-05-10T22:57:27.922Z,13.82
2019-05-10T22:59:55.066Z,13.72
2019-05-10T23:02:22.223Z,13.81
2019-05-10T23:04:49.391Z,13.87
2019-05-10T23:07:18.650Z,13.80
2019-05-10T23:09:45.814Z,13.90
2019-05-10T23:12:13.168Z,13.80
2019-05-10T23:14:40.417Z,13.79
2019-05-10T23:17:07.853Z,13.68
2019-05-10T23:19:35.178Z,13.72
2019-05-10T23:22:05.131Z,13.65
2019-05-10T23:24:38.159Z,13.51
2019-05-10T23:27:05.799Z,13.61
2019-05-10T23:29:33.830Z,13.53
2019-05-10T23:32:01.309Z,13.52
2019-05-10T23:34:32.172Z,13.44
2019-05-10T23:37:01.554Z,13.31
2019-05-10T23:39:40.145Z,13.30
2019-05-10T23:41:58.484Z,13.20
2019-05-10T23:44:26.060Z,13.08
2019-05-10T23:46:53.450Z,13.06
2019-05-10T23:49:22.725Z,12.91
2019-05-10T23:51:50.241Z,12.99
2019-05-10T23:54:17.521Z,12.97
2019-05-10T23:56:44.873Z,12.92
2019-05-10T23:59:12.146Z,12.86
